Terminal Aerodrome Forecast
Issued by NWS

Home | Current Version | Previous Version | Graphics & Text | Print | Product List | Glossary On
Versions: 1 2 3 4 5 6 7 8 9 10 11 12 13
728
FTUS43 KGRB 191724
TAFAUW
TAF
KAUW 191724Z 1918/2018 08005KT P6SM SCT250
     FM200900 12006KT P6SM BKN150 WS010/17035KT
     FM201100 12007KT 5SM BR BKN150 WS010/20035KT
     FM201400 13008G13KT 4SM BR OVC050 WS010/17035KT
     FM201700 14011G19KT P6SM BKN025=

USA.gov is the U.S. government's official web portal to all federal, state and local government web resources and services.